Fort Pike — WAA9418 — position and weather

sailwx.info

Track history (hours):
 
Tides and Currents Weather Stations Pressure Air Temp Water Temp Dewpoint Dewpoint Depression Visibility Wind Speed Wind Dir Waves Ship Positions

Fort Pike

More information available from US FCC via Universal Licensing System and Coast Guard Vessel Documentation Center.

Last reported at 2014-Sep-20 09:30 UTC. Time now 2014-Sep-21 00:00 UTC.
Position N 36°50' W 076°16'.

Length 18 m; draft 10.5 m.

Type: Tug. MMSI: 366948310.

Date/timePositionNaut miles runAvg speedWind from/ knotsBaromVisibWave heightAir tempDewpointWater temp
2014-Sep-20 09:30N 36°50' W 076°16'1 0.6
2014-Sep-20 08:16N 36°50' W 076°17'1 1.0
2014-Sep-20 07:31N 36°50' W 076°16'6 3.0
2014-Sep-20 05:29N 36°55' W 076°20'2 0.1
2014-Sep-19 01:24N 36°57' W 076°21'5 5.1
2014-Sep-19 00:20N 36°51' W 076°20'3 2.9
2014-Sep-18 23:11N 36°50' W 076°16'0 0.0
2014-Sep-17 06:29N 36°50' W 076°16'11 2.7
2014-Sep-17 02:15N 37°01' W 076°21'3 2.5
2014-Sep-17 01:14N 36°59' W 076°22'5 1.2
2014-Sep-16 21:33N 36°54' W 076°20'5 5.0
2014-Sep-16 20:30N 36°59' W 076°19'6 5.6
2014-Sep-16 19:30N 37°03' W 076°14'6 6.0
2014-Sep-16 18:33N 37°09' W 076°12'6 1.2
2014-Sep-16 13:23N 37°11' W 076°05'4 4.6
2014-Sep-16 12:32N 37°08' W 076°08'6 5.2
2014-Sep-16 11:24N 37°04' W 076°13'4 5.1
2014-Sep-16 10:33N 37°01' W 076°16'6 5.8
2014-Sep-16 09:31N 36°56' W 076°20'5 5.6
2014-Sep-16 08:33N 36°51' W 076°18'1 1.3
2014-Sep-16 07:33N 36°50' W 076°16'1 0.6
2014-Sep-16 06:29N 36°50' W 076°17'1 0.8
2014-Sep-16 05:33N 36°50' W 076°16'7 3.2
2014-Sep-16 03:19N 36°57' W 076°21'2 0.1
2014-Sep-15 01:17N 36°57' W 076°24'6 3.5
2014-Sep-14 23:27N 36°51' W 076°20'0 0.0
2014-Sep-14 21:33N 36°51' W 076°20'3 3.1
2014-Sep-14 20:32N 36°50' W 076°16'6 4.3
2014-Sep-14 19:07N 36°55' W 076°20'4 5.5
2014-Sep-14 18:20N 36°60' W 076°19'4 5.5
2014-Sep-14 17:33N 37°02' W 076°14'5 4.5
2014-Sep-14 16:32N 37°06' W 076°13'  
2014-Sep-11 21:17N 39°12' W 076°16'16 5.2
2014-Sep-11 18:12N 38°57' W 076°24'105 5.6
2014-Sep-10 23:33N 37°13' W 076°12'6 6.0
2014-Sep-10 22:33N 37°07' W 076°12'6 5.8
2014-Sep-10 21:28N 37°01' W 076°16'7 7.2
2014-Sep-10 20:33N 36°56' W 076°20'6 6.1
2014-Sep-10 19:31N 36°50' W 076°16'0 0.2
2014-Sep-10 18:15N 36°50' W 076°16'3 3.5
2014-Sep-10 17:17N 36°47' W 076°18'3 3.3
2014-Sep-10 16:23N 36°50' W 076°18'  
Track history (hours):
 
Tides and Currents Weather Stations Pressure Air Temp Water Temp Dewpoint Dewpoint Depression Visibility Wind Speed Wind Dir Waves Ship Positions

Fort Pike

More information available from US FCC via Universal Licensing System and Coast Guard Vessel Documentation Center.

Last reported at 2014-Sep-20 09:30 UTC. Time now 2014-Sep-21 00:00 UTC.
Position N 36°50' W 076°16'.

Length 18 m; draft 10.5 m.

Type: Tug. MMSI: 366948310.

Date/timePositionNaut miles runAvg speedWind from/ knotsBaromVisibWave heightAir tempDewpointWater temp
2014-Sep-20 09:30N 36°50' W 076°16'1 0.6
2014-Sep-20 08:16N 36°50' W 076°17'1 1.0
2014-Sep-20 07:31N 36°50' W 076°16'6 3.0
2014-Sep-20 05:29N 36°55' W 076°20'2 0.1
2014-Sep-19 01:24N 36°57' W 076°21'5 5.1
2014-Sep-19 00:20N 36°51' W 076°20'3 2.9
2014-Sep-18 23:11N 36°50' W 076°16'0 0.0
2014-Sep-17 06:29N 36°50' W 076°16'11 2.7
2014-Sep-17 02:15N 37°01' W 076°21'3 2.5
2014-Sep-17 01:14N 36°59' W 076°22'5 1.2
2014-Sep-16 21:33N 36°54' W 076°20'5 5.0
2014-Sep-16 20:30N 36°59' W 076°19'6 5.6
2014-Sep-16 19:30N 37°03' W 076°14'6 6.0
2014-Sep-16 18:33N 37°09' W 076°12'6 1.2
2014-Sep-16 13:23N 37°11' W 076°05'4 4.6
2014-Sep-16 12:32N 37°08' W 076°08'6 5.2
2014-Sep-16 11:24N 37°04' W 076°13'4 5.1
2014-Sep-16 10:33N 37°01' W 076°16'6 5.8
2014-Sep-16 09:31N 36°56' W 076°20'5 5.6
2014-Sep-16 08:33N 36°51' W 076°18'1 1.3
2014-Sep-16 07:33N 36°50' W 076°16'1 0.6
2014-Sep-16 06:29N 36°50' W 076°17'1 0.8
2014-Sep-16 05:33N 36°50' W 076°16'7 3.2
2014-Sep-16 03:19N 36°57' W 076°21'2 0.1
2014-Sep-15 01:17N 36°57' W 076°24'6 3.5
2014-Sep-14 23:27N 36°51' W 076°20'0 0.0
2014-Sep-14 21:33N 36°51' W 076°20'3 3.1
2014-Sep-14 20:32N 36°50' W 076°16'6 4.3
2014-Sep-14 19:07N 36°55' W 076°20'4 5.5
2014-Sep-14 18:20N 36°60' W 076°19'4 5.5
2014-Sep-14 17:33N 37°02' W 076°14'5 4.5
2014-Sep-14 16:32N 37°06' W 076°13'  
2014-Sep-11 21:17N 39°12' W 076°16'16 5.2
2014-Sep-11 18:12N 38°57' W 076°24'105 5.6
2014-Sep-10 23:33N 37°13' W 076°12'6 6.0
2014-Sep-10 22:33N 37°07' W 076°12'6 5.8
2014-Sep-10 21:28N 37°01' W 076°16'7 7.2
2014-Sep-10 20:33N 36°56' W 076°20'6 6.1
2014-Sep-10 19:31N 36°50' W 076°16'0 0.2
2014-Sep-10 18:15N 36°50' W 076°16'3 3.5
2014-Sep-10 17:17N 36°47' W 076°18'3 3.3
2014-Sep-10 16:23N 36°50' W 076°18'  

Dump ship's entire track history